Weather at Dolly's Grove Airfield

Public forecast

Using degrees Celsius for public forecast. Weather courtesy of forecast.io.

Closest aviation weather report (METAR) to Dolly's Grove Airfield

Closest report is Casement Air Base, 8.0 nm (14.8 km) SSE.

2024/05/21 08:00 (retrieved 30 minutes ago)

EIME 210800Z 07005KT 050V110 9999 FEW030 SCT050 16/13 Q1011

Closest aviation forecast (TAF) to Dolly's Grove Airfield

Closest forecast is Dublin Airport, 10.2 nm (18.8 km) E.

2024/05/21 06:42 Ammendment (retrieved 2 hours ago)

TAF AMD EIDW 210635Z 2106/2206 12007KT 7000 FEW020 PROB30 TEMPO 2107/2109 -SHRA FEW020CB TEMPO 2109/2115 -SHRA SCT020CB PROB40 TEMPO 2109/2114 4000 SHRA BKN012 PROB40 TEMPO 2115/2121 -SHRA FEW020CB BECMG 2116/2118 VRB03KT BECMG 2122/2124 28006KT PROB30 TEMPO 2122/2124 4000 BR BKN007 TEMPO 2200/2206 3000 BR BKN004 BECMG 2201/2203 32009KT